Sherman, Texas
Current Conditions -  °F | °C
As of 4:55 PM on Sunday 21 Dec 2014 (Local Time) from KGYI Reporting Station
Overcast Overcast  
Wind Chill: 43°   Ceiling: 1400
Heat Index: 49°   Visibility: 10mi
Dew Point: 47°   Wind: 16mph
Humidity: 91%   Direction: 150°SSE
Pressure: 29.86"   Gusts: NA
Location:  33.64°N, 96.61°W
Report Text: KGYI 212255Z AUTO 15014KT 10SM BKN014 OVC020 10/08 A2986 RMK AO2 T00950081
Loading
Personal Weather Stations






























Interactive Weather Map New forecast layout! Learn more

10-Day Weather Forecast

Advertisements
Track Severe Weather on mobile